Time;durP1;ratioP1;P1;durP2;ratioP2;P2;SDS_P1;SDS_P2;PMS_P1;PMS_P2;Temp;Humidity;BMP_temperature;BMP_pressure;BME280_temperature;BME280_humidity;BME280_pressure;Samples;Min_cycle;Max_cycle;Signal;HPM_P1;HPM_P2
2023/11/21 00:00:26;;;;;;;4.00;1.83;;;;;;;11.07;98.78;97534.75;4180488;28;20703;-86
2023/11/21 00:02:29;;;;;;;3.40;1.40;;;;;;;11.08;98.06;97532.94;4169500;28;20632;-86
2023/11/21 00:04:33;;;;;;;5.10;1.93;;;;;;;11.08;98.81;97532.94;4173103;28;21038;-86
2023/11/21 00:06:36;;;;;;;3.03;1.53;;;;;;;11.05;97.56;97530.59;4176749;28;20647;-86
2023/11/21 00:08:40;;;;;;;4.33;1.60;;;;;;;11.05;97.21;97535.81;4159831;28;20634;-86
2023/11/21 00:10:44;;;;;;;2.57;1.87;;;;;;;11.04;99.39;97534.16;4155745;28;20728;-86
2023/11/21 00:12:48;;;;;;;3.90;1.60;;;;;;;11.04;98.87;97526.34;4157757;28;21005;-87
2023/11/21 00:14:50;;;;;;;2.57;1.60;;;;;;;11.03;98.81;97533.31;4188712;28;20669;-86
2023/11/21 00:16:55;;;;;;;3.67;1.43;;;;;;;11.05;98.97;97530.59;4171646;28;20644;-86
2023/11/21 00:18:58;;;;;;;4.30;1.90;;;;;;;11.05;98.10;97530.59;4165483;28;20649;-86
2023/11/21 00:21:01;;;;;;;4.03;1.70;;;;;;;11.04;97.62;97527.16;4184412;28;21047;-86
2023/11/21 00:23:05;;;;;;;4.00;1.87;;;;;;;11.06;98.18;97521.81;4174947;28;20623;-86
2023/11/21 00:25:10;;;;;;;2.57;1.20;;;;;;;11.06;98.01;97527.03;4175380;28;20640;-86
2023/11/21 00:27:14;;;;;;;3.50;1.50;;;;;;;11.08;98.03;97528.59;4183851;28;21010;-86
2023/11/21 00:29:18;;;;;;;2.30;1.30;;;;;;;11.08;97.34;97523.38;4187708;28;20632;-86
2023/11/21 00:31:21;;;;;;;2.40;1.00;;;;;;;11.08;97.50;97523.38;4170061;28;20642;-86
2023/11/21 00:33:25;;;;;;;3.37;1.20;;;;;;;11.06;98.16;97516.59;4188505;28;20632;-86
2023/11/21 00:35:28;;;;;;;2.47;1.30;;;;;;;11.06;98.10;97520.03;4170566;28;20629;-86
2023/11/21 00:37:32;;;;;;;4.23;1.20;;;;;;;11.05;96.59;97513.16;4151375;28;20665;-86
2023/11/21 00:39:35;;;;;;;3.57;1.30;;;;;;;11.05;97.54;97521.00;4159124;28;20656;-86
2023/11/21 00:41:40;;;;;;;4.10;1.40;;;;;;;11.08;96.77;97528.59;4168089;28;20619;-86
2023/11/21 00:43:44;;;;;;;2.87;1.20;;;;;;;11.06;97.19;97517.41;4170248;28;20723;-86
2023/11/21 00:45:49;;;;;;;2.20;1.13;;;;;;;11.08;96.34;97522.50;4175258;28;21201;-86
2023/11/21 00:47:51;;;;;;;3.33;1.30;;;;;;;11.07;98.09;97521.69;4169025;28;20724;-86
2023/11/21 00:49:55;;;;;;;3.07;1.70;;;;;;;11.08;96.96;97523.38;4184684;28;20620;-85
2023/11/21 00:51:57;;;;;;;4.23;1.37;;;;;;;11.07;96.95;97519.09;4153160;28;20634;-86
2023/11/21 00:54:02;;;;;;;3.80;1.50;;;;;;;11.09;98.24;97529.41;4161410;28;20638;-86
2023/11/21 00:56:08;;;;;;;5.10;1.50;;;;;;;11.07;97.25;97532.13;4166943;28;20625;-85
2023/11/21 00:58:13;;;;;;;3.87;1.90;;;;;;;11.06;99.12;97525.25;4170350;28;20629;-86
2023/11/21 01:00:18;;;;;;;6.33;1.87;;;;;;;11.05;99.35;97521.00;4156174;28;20654;-86
2023/11/21 01:02:21;;;;;;;4.97;1.70;;;;;;;11.04;98.82;97521.94;4167644;28;20653;-86
2023/11/21 01:04:24;;;;;;;2.97;1.43;;;;;;;11.05;99.61;97525.38;4172324;28;20690;-86
2023/11/21 01:06:27;;;;;;;4.50;1.70;;;;;;;11.05;99.16;97526.22;4170324;28;20623;-86
2023/11/21 01:08:31;;;;;;;2.80;1.70;;;;;;;11.01;99.16;97516.16;4164716;28;21004;-86
2023/11/21 01:10:34;;;;;;;6.07;1.83;;;;;;;10.97;98.60;97519.94;4154929;28;20620;-87
2023/11/21 01:12:38;;;;;;;2.40;1.60;;;;;;;10.88;99.52;97523.25;4159351;28;20621;-86
2023/11/21 01:14:43;;;;;;;4.00;1.97;;;;;;;10.86;99.91;97515.56;4172058;28;28018;-87
2023/11/21 01:16:48;;;;;;;4.87;1.97;;;;;;;10.88;100.00;97521.50;4158358;28;20598;-87
2023/11/21 01:18:52;;;;;;;3.83;1.83;;;;;;;10.90;100.00;97518.78;4157841;28;20643;-86
2023/11/21 01:20:54;;;;;;;6.30;1.93;;;;;;;10.91;100.00;97518.63;4182606;28;20652;-86
2023/11/21 01:22:59;;;;;;;3.33;1.50;;;;;;;10.90;100.00;97511.78;4184452;28;20984;-87
2023/11/21 01:25:04;;;;;;;5.53;1.55;;;;;;;10.91;100.00;97510.78;4189411;28;20620;-87
2023/11/21 01:27:08;;;;;;;4.47;1.60;;;;;;;10.92;100.00;97517.69;4171866;28;20237;-86
2023/11/21 01:29:11;;;;;;;3.70;1.50;;;;;;;10.92;100.00;97517.69;4155857;28;20637;-87
2023/11/21 01:31:15;;;;;;;4.13;1.90;;;;;;;10.92;100.00;97517.69;4160886;28;20786;-87
2023/11/21 01:33:18;;;;;;;4.07;1.77;;;;;;;10.94;100.00;97522.78;4168631;28;20630;-87
2023/11/21 01:35:22;;;;;;;2.90;1.53;;;;;;;10.93;100.00;97519.34;4174607;28;20642;-86
2023/11/21 01:37:27;;;;;;;4.97;2.50;;;;;;;10.93;100.00;97521.97;4158732;28;21304;-86
2023/11/21 01:39:31;;;;;;;2.90;1.53;;;;;;;10.95;100.00;97517.44;4157503;28;20722;-86
2023/11/21 01:41:35;;;;;;;3.77;2.10;;;;;;;10.95;100.00;97517.44;4165470;28;20660;-87
2023/11/21 01:43:38;;;;;;;5.67;1.87;;;;;;;10.96;100.00;97521.72;4176984;28;21251;-86
2023/11/21 01:45:41;;;;;;;3.83;1.93;;;;;;;10.98;100.00;97524.22;4169456;28;20663;-86
2023/11/21 01:47:45;;;;;;;3.17;1.90;;;;;;;10.94;100.00;97521.00;4160812;28;20633;-87
2023/11/21 01:49:49;;;;;;;4.00;1.90;;;;;;;10.91;100.00;97516.03;4170801;28;20616;-86
2023/11/21 01:51:53;;;;;;;5.10;2.30;;;;;;;10.90;100.00;97522.22;4177176;28;20638;-86
2023/11/21 01:53:57;;;;;;;4.80;2.27;;;;;;;10.92;100.00;97522.91;4171849;28;20651;-86
2023/11/21 01:56:01;;;;;;;2.83;2.00;;;;;;;10.95;100.00;97517.44;4162032;28;20622;-86
2023/11/21 01:58:04;;;;;;;3.10;1.90;;;;;;;10.97;100.00;97525.16;4189725;28;20639;-86
2023/11/21 02:00:15;;;;;;;5.40;2.40;;;;;;;10.98;100.00;97529.44;4158154;28;20736;-86
2023/11/21 02:02:17;;;;;;;4.17;1.80;;;;;;;10.98;100.00;97519.00;4184112;28;21185;-86
2023/11/21 02:04:22;;;;;;;3.00;1.70;;;;;;;10.96;100.00;97519.13;4194965;28;20658;-86
2023/11/21 02:06:26;;;;;;;3.50;2.00;;;;;;;10.98;100.00;97521.59;4176402;28;20659;-86
2023/11/21 02:08:29;;;;;;;6.73;2.13;;;;;;;10.99;100.00;97526.69;4153823;28;20686;-86
2023/11/21 02:10:33;;;;;;;4.03;2.10;;;;;;;11.00;100.00;97528.34;4174573;28;20622;-86
2023/11/21 02:12:38;;;;;;;3.53;1.80;;;;;;;11.02;100.00;97531.69;4173617;28;20648;-86
2023/11/21 02:14:41;;;;;;;5.03;1.97;;;;;;;11.04;100.00;97529.75;4190556;28;20620;-86
2023/11/21 02:16:47;;;;;;;3.97;2.00;;;;;;;11.03;100.00;97530.72;4177983;28;20645;-86
2023/11/21 02:18:52;;;;;;;4.10;1.70;;;;;;;11.00;100.00;97525.72;4179815;28;20618;-86
2023/11/21 02:20:57;;;;;;;3.83;1.80;;;;;;;11.05;100.00;97523.59;4159058;28;20661;-86
2023/11/21 02:23:02;;;;;;;3.67;1.73;;;;;;;11.07;100.00;97524.31;4173814;28;20624;-86
2023/11/21 02:25:05;;;;;;;4.00;1.80;;;;;;;11.05;100.00;97521.00;4183139;28;20723;-86
2023/11/21 02:27:10;;;;;;;5.20;2.07;;;;;;;11.06;100.00;97519.22;4160191;28;20637;-86
2023/11/21 02:29:13;;;;;;;4.60;1.80;;;;;;;11.06;100.00;97519.22;4174237;28;20628;-86
2023/11/21 02:31:16;;;;;;;4.07;2.00;;;;;;;11.05;100.00;97520.16;4170240;28;20654;-86
2023/11/21 02:33:20;;;;;;;2.87;1.63;;;;;;;11.04;100.00;97519.31;4188465;28;20635;-86
2023/11/21 02:35:25;;;;;;;6.03;2.53;;;;;;;11.05;100.00;97515.78;4169544;28;20633;-86
2023/11/21 02:37:29;;;;;;;3.00;2.00;;;;;;;11.07;100.00;97516.47;4177630;28;20619;-86
2023/11/21 02:39:35;;;;;;;5.33;2.10;;;;;;;11.10;100.00;97510.19;4159652;28;20625;-86
2023/11/21 02:41:39;;;;;;;3.57;1.90;;;;;;;11.12;100.00;97518.72;4178973;28;20645;-86
2023/11/21 02:43:43;;;;;;;3.97;1.67;;;;;;;11.15;100.00;97519.28;4190555;28;20619;-86
2023/11/21 02:45:46;;;;;;;3.33;1.83;;;;;;;11.15;100.00;97516.69;4168096;28;20636;-87
2023/11/21 02:47:50;;;;;;;6.77;2.30;;;;;;;11.15;100.00;97521.91;4173358;28;21255;-86
2023/11/21 02:49:52;;;;;;;4.67;2.00;;;;;;;11.15;100.00;97508.84;4176904;28;20617;-86
2023/11/21 02:51:55;;;;;;;3.80;2.63;;;;;;;11.14;100.00;97512.44;4160339;28;20637;-86
2023/11/21 02:54:00;;;;;;;7.50;2.40;;;;;;;11.14;100.00;97512.44;4159973;28;20617;-87
2023/11/21 02:56:06;;;;;;;3.13;1.70;;;;;;;11.14;100.00;97508.97;4162492;28;20685;-86
2023/11/21 02:58:09;;;;;;;2.67;1.80;;;;;;;11.14;100.00;97516.81;4157288;28;20618;-86
2023/11/21 03:00:14;;;;;;;4.27;2.03;;;;;;;11.15;100.00;97518.47;4160161;28;20656;-86
2023/11/21 03:02:18;;;;;;;4.10;1.90;;;;;;;11.15;100.00;97513.25;4157511;28;21265;-87
2023/11/21 03:04:22;;;;;;;6.70;2.17;;;;;;;11.15;100.00;97515.88;4171725;28;20625;-86
2023/11/21 03:06:25;;;;;;;4.10;2.03;;;;;;;11.15;100.00;97515.88;4176851;28;21392;-86
2023/11/21 03:08:27;;;;;;;3.77;2.27;;;;;;;11.14;100.00;97515.06;4159029;28;23239;-87
2023/11/21 03:10:31;;;;;;;7.13;2.33;;;;;;;11.14;100.00;97516.81;4160402;28;20736;-84
2023/11/21 03:12:36;;;;;;;2.67;1.67;;;;;;;11.14;100.00;97522.03;4175549;28;20626;-86
2023/11/21 03:14:40;;;;;;;5.57;2.13;;;;;;;11.14;100.00;97522.03;4158469;28;21075;-87
2023/11/21 03:16:45;;;;;;;5.10;2.20;;;;;;;11.12;100.00;97519.53;4163964;28;20637;-87
2023/11/21 03:18:48;;;;;;;2.57;1.60;;;;;;;11.12;100.00;97523.94;4155778;28;20606;-87
2023/11/21 03:20:53;;;;;;;4.33;2.00;;;;;;;11.10;100.00;97520.63;4158247;28;21083;-86
2023/11/21 03:22:56;;;;;;;4.70;2.23;;;;;;;11.13;100.00;97525.63;4171115;28;21181;-86
2023/11/21 03:25:00;;;;;;;5.80;2.10;;;;;;;11.12;100.00;97516.94;4158917;28;20645;-87
2023/11/21 03:27:03;;;;;;;6.40;2.13;;;;;;;11.08;100.00;97517.28;4171233;28;20635;-87
2023/11/21 03:29:08;;;;;;;7.13;2.47;;;;;;;11.07;100.00;97521.69;4180823;28;20694;-86
2023/11/21 03:31:12;;;;;;;5.17;2.23;;;;;;;11.06;100.00;97522.63;4153364;28;21065;-86
2023/11/21 03:33:15;;;;;;;3.80;2.10;;;;;;;11.04;100.00;97521.13;4155003;28;20642;-87
2023/11/21 03:35:21;;;;;;;4.07;1.93;;;;;;;11.01;100.00;97516.97;4173491;28;20695;-86
2023/11/21 03:37:24;;;;;;;3.53;2.07;;;;;;;11.00;100.00;97522.31;4169103;28;20636;-87
2023/11/21 03:39:29;;;;;;;6.50;2.17;;;;;;;11.00;100.00;97522.31;4193675;28;20620;-86
2023/11/21 03:41:34;;;;;;;4.77;1.63;;;;;;;11.03;100.00;97524.66;4178220;28;21232;-87
2023/11/21 03:43:36;;;;;;;3.10;1.73;;;;;;;11.04;100.00;97524.56;4170801;28;20664;-87
2023/11/21 03:45:42;;;;;;;4.13;2.27;;;;;;;11.06;100.00;97530.47;4184537;28;20686;-86
2023/11/21 03:47:46;;;;;;;5.53;2.30;;;;;;;11.05;100.00;97523.59;4178732;28;21084;-86
2023/11/21 03:49:50;;;;;;;4.40;2.10;;;;;;;11.06;100.00;97530.47;4188036;28;20628;-86
2023/11/21 03:51:52;;;;;;;4.30;2.00;;;;;;;11.05;100.00;97531.44;4170984;28;20654;-88
2023/11/21 03:53:55;;;;;;;5.50;2.03;;;;;;;11.05;100.00;97530.59;4178773;28;20632;-86
2023/11/21 03:55:59;;;;;;;4.03;2.03;;;;;;;11.06;100.00;97530.47;4175195;28;20632;-85
2023/11/21 03:58:03;;;;;;;4.23;1.90;;;;;;;11.08;100.00;97527.72;4166760;28;20728;-86
2023/11/21 04:00:10;;;;;;;3.93;1.80;;;;;;;11.08;100.00;97536.41;4189621;28;20708;-85
2023/11/21 04:02:17;;;;;;;3.53;1.80;;;;;;;11.08;100.00;97539.03;4183246;28;20652;-88
2023/11/21 04:04:20;;;;;;;5.00;1.77;;;;;;;11.09;100.00;97534.63;4188784;28;20681;-88
2023/11/21 04:06:23;;;;;;;5.73;2.43;;;;;;;11.10;100.00;97534.50;4187396;28;20643;-88
2023/11/21 04:08:26;;;;;;;2.63;1.73;;;;;;;11.08;100.00;97541.63;4154087;28;20633;-88
2023/11/21 04:10:29;;;;;;;4.97;2.30;;;;;;;11.08;100.00;97530.34;4154419;28;20628;-89
2023/11/21 04:12:33;;;;;;;2.87;1.80;;;;;;;11.10;100.00;97534.50;4186562;28;20675;-88
2023/11/21 04:14:36;;;;;;;3.97;1.70;;;;;;;11.10;100.00;97526.69;4185408;28;21085;-88
2023/11/21 04:16:39;;;;;;;4.20;1.70;;;;;;;11.11;100.00;97533.56;4154728;28;21043;-88
2023/11/21 04:18:44;;;;;;;2.80;1.70;;;;;;;11.12;100.00;97535.19;4172509;28;22630;-88
2023/11/21 04:20:49;;;;;;;4.47;1.80;;;;;;;11.12;100.00;97537.81;4175348;28;20663;-88
2023/11/21 04:22:52;;;;;;;5.30;1.70;;;;;;;11.13;100.00;97538.66;4185789;28;21274;-88
2023/11/21 04:24:55;;;;;;;3.33;1.50;;;;;;;11.13;100.00;97536.88;4188777;28;20611;-88
2023/11/21 04:26:59;;;;;;;2.80;1.47;;;;;;;11.16;100.00;97536.63;4189886;28;20723;-88
2023/11/21 04:29:03;;;;;;;2.83;1.50;;;;;;;11.17;100.00;97538.28;4158034;28;20629;-88
2023/11/21 04:31:06;;;;;;;3.80;1.80;;;;;;;11.18;100.00;97537.31;4186318;28;20744;-88
2023/11/21 04:33:10;;;;;;;4.87;1.80;;;;;;;11.17;100.00;97545.28;4165099;28;20723;-88
2023/11/21 04:35:15;;;;;;;3.23;1.50;;;;;;;11.17;100.00;97543.53;4176793;28;20636;-88
2023/11/21 04:37:18;;;;;;;2.90;1.40;;;;;;;11.18;100.00;97539.94;4158428;28;20640;-88
2023/11/21 04:39:22;;;;;;;3.23;1.90;;;;;;;11.20;100.00;97543.28;4173431;28;20621;-88
2023/11/21 04:41:25;;;;;;;5.97;1.90;;;;;;;11.19;100.00;97540.78;4186146;28;20659;-88
2023/11/21 04:43:28;;;;;;;3.17;1.90;;;;;;;11.19;100.00;97546.81;4157446;28;20629;-88
2023/11/21 04:45:32;;;;;;;4.27;1.73;;;;;;;11.16;100.00;97544.47;4172492;28;20726;-88
2023/11/21 04:47:35;;;;;;;4.10;1.70;;;;;;;11.16;100.00;97544.47;4178067;28;20690;-89
2023/11/21 04:49:44;;;;;;;4.07;1.83;;;;;;;11.15;100.00;97545.41;4183540;28;20622;-88
2023/11/21 04:51:48;;;;;;;4.03;1.80;;;;;;;11.12;100.00;97548.25;4178978;28;20685;-88
2023/11/21 04:53:52;;;;;;;3.27;1.50;;;;;;;11.13;100.00;97541.28;4155973;28;20637;-88
2023/11/21 04:55:55;;;;;;;3.37;1.80;;;;;;;11.24;100.00;97549.88;4188390;28;20615;-88
2023/11/21 04:57:58;;;;;;;3.07;1.80;;;;;;;11.25;100.00;97543.72;4171966;28;20668;-88
2023/11/21 05:00:01;;;;;;;4.20;1.57;;;;;;;11.14;100.00;97551.59;4176514;28;20624;-88
2023/11/21 05:02:05;;;;;;;7.07;1.87;;;;;;;11.13;100.00;97556.94;4155885;28;20657;-88
2023/11/21 05:04:10;;;;;;;3.87;1.87;;;;;;;11.13;100.00;97557.75;4166640;28;20635;-89
2023/11/21 05:06:14;;;;;;;5.13;1.73;;;;;;;11.13;100.00;97557.75;4189369;28;21261;-89
2023/11/21 05:08:20;;;;;;;5.87;1.90;;;;;;;11.13;100.00;97554.31;4169906;28;20612;-89
2023/11/21 05:10:23;;;;;;;2.57;1.63;;;;;;;11.14;100.00;97554.19;4172376;28;21206;-88
2023/11/21 05:12:33;;;;;;;2.70;1.50;;;;;;;11.15;100.00;97557.63;4158488;28;21267;-89
2023/11/21 05:14:36;;;;;;;3.13;1.73;;;;;;;11.16;100.00;97556.69;4162226;28;20632;-89
2023/11/21 05:16:38;;;;;;;4.53;2.13;;;;;;;11.17;100.00;97561.78;4171292;28;20644;-89
2023/11/21 05:18:42;;;;;;;4.30;2.10;;;;;;;11.18;100.00;97562.59;4185596;28;20632;-88
2023/11/21 05:20:45;;;;;;;2.47;1.50;;;;;;;11.18;100.00;97566.03;4158421;28;20617;-89
2023/11/21 05:22:49;;;;;;;2.40;1.30;;;;;;;11.19;100.00;97569.50;4186061;28;20660;-88
2023/11/21 05:24:54;;;;;;;4.10;1.90;;;;;;;11.20;100.00;97571.97;4175994;28;20666;-88
2023/11/21 05:26:57;;;;;;;3.40;1.97;;;;;;;11.21;100.00;97572.81;4190097;28;20619;-88
2023/11/21 05:28:59;;;;;;;3.70;1.97;;;;;;;11.20;100.00;97574.59;4168036;28;20616;-88
2023/11/21 05:31:03;;;;;;;5.43;1.80;;;;;;;11.23;100.00;97573.50;4186623;28;20660;-88
2023/11/21 05:33:18;;;;;;;5.20;2.27;;;;;;;11.24;100.00;97580.38;4173947;28;21021;-88
2023/11/21 05:35:22;;;;;;;2.73;1.53;;;;;;;11.20;100.00;97582.41;4172276;28;21207;-88
2023/11/21 05:37:26;;;;;;;5.57;1.60;;;;;;;11.19;100.00;97588.59;4167105;28;20627;-88
2023/11/21 05:39:30;;;;;;;2.40;1.40;;;;;;;11.17;100.00;97590.50;4172834;28;20632;-88
2023/11/21 05:41:34;;;;;;;3.17;1.47;;;;;;;11.16;100.00;97594.03;4191657;28;20664;-89
2023/11/21 05:43:38;;;;;;;2.10;1.30;;;;;;;11.16;100.00;97596.66;4190198;28;20639;-89
2023/11/21 05:45:42;;;;;;;3.20;2.00;;;;;;;11.17;100.00;97592.25;4177689;28;21111;-88
2023/11/21 05:47:46;;;;;;;3.77;1.70;;;;;;;11.16;100.00;97593.22;4190265;28;20620;-89
2023/11/21 05:49:51;;;;;;;2.37;1.60;;;;;;;11.18;100.00;97589.53;4174789;28;20621;-88
2023/11/21 05:51:57;;;;;;;2.40;1.63;;;;;;;11.16;100.00;97595.84;4169904;28;20669;-89
2023/11/21 05:54:05;;;;;;;2.50;1.70;;;;;;;11.18;100.00;97602.56;4186225;28;20662;-88
2023/11/21 05:56:08;;;;;;;5.17;3.03;;;;;;;11.24;100.00;97596.06;4191647;28;20620;-89
2023/11/21 05:58:13;;;;;;;4.10;1.80;;;;;;;11.18;100.00;97599.97;4158584;28;21216;-88
2023/11/21 06:00:21;;;;;;;3.97;2.00;;;;;;;11.16;100.00;97599.25;4169156;28;20665;-88
2023/11/21 06:02:25;;;;;;;5.47;2.07;;;;;;;11.16;100.00;97604.47;4177649;28;20664;-88
2023/11/21 06:04:28;;;;;;;3.07;1.90;;;;;;;11.16;100.00;97607.09;4171986;28;20684;-88
2023/11/21 06:06:32;;;;;;;3.73;2.07;;;;;;;11.18;100.00;97606.97;4186047;28;20626;-88
2023/11/21 06:08:35;;;;;;;3.20;1.90;;;;;;;11.16;100.00;97609.69;4189397;28;20688;-88
2023/11/21 06:10:39;;;;;;;3.73;2.10;;;;;;;11.15;100.00;97610.63;4185910;28;21300;-89
2023/11/21 06:12:43;;;;;;;3.20;2.23;;;;;;;11.16;100.00;97620.16;4189885;28;20675;-88
2023/11/21 06:14:48;;;;;;;4.30;1.67;;;;;;;11.15;100.00;97618.47;4175198;28;20633;-88
2023/11/21 06:16:52;;;;;;;2.80;1.57;;;;;;;11.14;100.00;97615.97;4176881;28;20628;-88
2023/11/21 06:18:56;;;;;;;3.40;2.20;;;;;;;11.14;100.00;97621.19;4190446;28;20715;-88
2023/11/21 06:21:00;;;;;;;3.43;2.00;;;;;;;11.12;100.00;97620.50;4158365;28;20634;-88
2023/11/21 06:23:04;;;;;;;5.67;2.10;;;;;;;11.11;100.00;97622.28;4173342;28;20664;-88
2023/11/21 06:25:10;;;;;;;2.67;1.90;;;;;;;11.10;100.00;97625.03;4171689;28;20674;-88
2023/11/21 06:27:13;;;;;;;4.97;2.00;;;;;;;11.10;100.00;97631.06;4189314;28;20619;-88
2023/11/21 06:29:17;;;;;;;5.13;1.83;;;;;;;11.11;100.00;97634.50;4187469;28;20634;-88
2023/11/21 06:31:22;;;;;;;3.50;2.00;;;;;;;11.12;100.00;97630.94;4183162;28;20660;-88
2023/11/21 06:33:27;;;;;;;4.30;1.77;;;;;;;11.12;100.00;97630.94;4172951;28;20667;-89
2023/11/21 06:35:33;;;;;;;3.10;1.53;;;;;;;11.12;100.00;97631.75;4190733;28;20615;-89
2023/11/21 06:37:36;;;;;;;4.50;1.77;;;;;;;11.13;100.00;97637.81;4175019;28;20734;-88
2023/11/21 06:39:40;;;;;;;3.27;2.07;;;;;;;11.10;100.00;97633.66;4190991;28;20674;-88
2023/11/21 06:41:43;;;;;;;4.03;1.97;;;;;;;11.07;100.00;97636.50;4177172;28;21340;-89
2023/11/21 06:43:47;;;;;;;3.90;2.13;;;;;;;11.09;100.00;97641.63;4185794;28;21031;-88
2023/11/21 06:45:50;;;;;;;3.83;1.93;;;;;;;11.09;100.00;97644.22;4170086;28;21076;-88
2023/11/21 06:47:57;;;;;;;3.70;1.77;;;;;;;11.10;100.00;97651.13;4171658;28;20639;-89
2023/11/21 06:50:00;;;;;;;2.70;2.10;;;;;;;11.09;100.00;97650.25;4173864;28;20640;-89
2023/11/21 06:52:04;;;;;;;7.37;2.73;;;;;;;11.09;100.00;97646.84;4187090;28;20662;-88
2023/11/21 06:54:07;;;;;;;3.60;2.50;;;;;;;11.10;100.00;97646.72;4176330;28;21053;-89
2023/11/21 06:56:16;;;;;;;3.97;2.43;;;;;;;11.09;100.00;97650.25;4161743;28;20633;-88
2023/11/21 06:58:20;;;;;;;5.47;2.00;;;;;;;11.10;100.00;97651.94;4184946;28;20741;-88
2023/11/21 07:00:23;;;;;;;5.43;2.67;;;;;;;11.09;100.00;97650.25;4172883;28;20690;-88
2023/11/21 07:02:27;;;;;;;3.87;2.60;;;;;;;11.08;100.00;97651.22;4187012;28;20713;-88
2023/11/21 07:04:32;;;;;;;4.33;2.43;;;;;;;11.09;100.00;97658.09;4186252;28;20639;-89
2023/11/21 07:06:37;;;;;;;10.23;8.53;;;;;;;11.10;100.00;97672.00;4187040;28;20634;-88
2023/11/21 07:08:40;;;;;;;8.60;7.30;;;;;;;11.16;100.00;97671.53;4182018;28;20693;-88
2023/11/21 07:10:44;;;;;;;5.73;3.73;;;;;;;11.11;100.00;97671.88;4174084;28;20660;-89
2023/11/21 07:12:47;;;;;;;5.30;2.53;;;;;;;11.08;100.00;97674.72;4177146;28;20717;-88
2023/11/21 07:14:49;;;;;;;5.17;3.73;;;;;;;11.03;100.00;97679.44;4177515;28;20638;-88
2023/11/21 07:16:53;;;;;;;29.03;18.60;;;;;;;10.99;100.00;97674.56;4192133;28;20719;-87
2023/11/21 07:18:57;;;;;;;20.23;12.80;;;;;;;10.99;100.00;97680.63;4173252;28;21398;-87
2023/11/21 07:21:01;;;;;;;13.27;10.20;;;;;;;11.01;100.00;97670.91;4190677;28;20631;-88
2023/11/21 07:23:05;;;;;;;7.00;4.47;;;;;;;11.04;100.00;97675.91;4161010;28;20657;-88
2023/11/21 07:25:09;;;;;;;4.73;3.87;;;;;;;11.08;100.00;97689.53;4173650;28;21295;-88
2023/11/21 07:27:13;;;;;;;7.13;3.60;;;;;;;11.11;100.00;97686.69;4174995;28;20632;-88
2023/11/21 07:29:16;;;;;;;5.77;3.53;;;;;;;11.12;100.00;97683.97;4188898;28;20646;-88
2023/11/21 07:31:20;;;;;;;4.93;3.10;;;;;;;11.14;100.00;97687.28;4173051;28;20672;-89
2023/11/21 07:33:26;;;;;;;6.17;2.97;;;;;;;11.17;100.00;97694.03;4156790;28;20683;-87
2023/11/21 07:35:29;;;;;;;5.27;3.00;;;;;;;11.18;100.00;97690.50;4185084;28;20710;-89
2023/11/21 07:37:34;;;;;;;5.33;3.20;;;;;;;11.20;100.00;97697.28;4167528;28;20731;-88
2023/11/21 07:39:37;;;;;;;6.20;2.83;;;;;;;11.22;100.00;97694.53;4187324;28;21008;-88
2023/11/21 07:41:44;;;;;;;14.70;4.17;;;;;;;11.23;100.00;97701.41;4187287;28;21277;-87
2023/11/21 07:43:48;;;;;;;5.60;2.97;;;;;;;11.24;100.00;97705.69;4172001;28;20636;-88
2023/11/21 07:45:52;;;;;;;4.00;2.80;;;;;;;11.25;100.00;97705.56;4176095;28;20634;-87
2023/11/21 07:47:55;;;;;;;7.70;2.30;;;;;;;11.25;100.00;97709.97;4170958;28;20636;-88
2023/11/21 07:49:58;;;;;;;2.93;1.70;;;;;;;11.27;100.00;97713.28;4167045;28;20662;-86
2023/11/21 07:52:02;;;;;;;3.73;2.37;;;;;;;11.28;100.00;97708.75;4155758;28;20665;-86
2023/11/21 07:54:07;;;;;;;5.80;5.20;;;;;;;11.30;100.00;97716.47;4175164;28;20643;-87
2023/11/21 07:56:10;;;;;;;5.23;3.90;;;;;;;11.30;100.00;97722.50;4189671;28;20693;-87
2023/11/21 07:58:14;;;;;;;4.60;3.70;;;;;;;11.32;100.00;97719.78;4159524;28;20963;-88
2023/11/21 08:00:18;;;;;;;5.40;4.57;;;;;;;11.33;100.00;97721.47;4184143;28;20747;-87
2023/11/21 08:02:21;;;;;;;4.67;3.70;;;;;;;11.36;100.00;97721.22;4169420;28;20679;-87
2023/11/21 08:04:25;;;;;;;5.33;2.73;;;;;;;11.37;100.00;97718.50;4172790;28;20664;-87
2023/11/21 08:06:28;;;;;;;3.60;2.17;;;;;;;11.39;100.00;97727.03;4150284;28;20677;-87
2023/11/21 08:08:32;;;;;;;2.70;2.13;;;;;;;11.42;100.00;97726.78;4169396;28;20656;-86
2023/11/21 08:10:37;;;;;;;3.17;2.50;;;;;;;11.44;100.00;97727.53;4184285;28;20618;-87
2023/11/21 08:12:42;;;;;;;3.40;2.00;;;;;;;11.44;100.00;97731.91;4168434;28;20708;-86
2023/11/21 08:14:45;;;;;;;3.30;2.17;;;;;;;11.44;100.00;97734.50;4186622;28;20631;-87
2023/11/21 08:16:49;;;;;;;3.60;2.40;;;;;;;11.42;100.00;97733.81;4172615;28;20620;-86
2023/11/21 08:18:54;;;;;;;6.43;3.67;;;;;;;11.42;100.00;97742.47;4172220;28;20716;-87
2023/11/21 08:20:58;;;;;;;3.00;2.17;;;;;;;11.44;100.00;97740.59;4182743;28;20663;-86
2023/11/21 08:23:02;;;;;;;3.10;2.10;;;;;;;11.49;100.00;97742.88;4173807;28;20635;-87
2023/11/21 08:25:07;;;;;;;7.13;6.03;;;;;;;11.53;100.00;97742.53;4157704;28;20665;-87
2023/11/21 08:27:16;;;;;;;4.63;3.83;;;;;;;11.56;100.00;97744.03;4175829;28;21191;-86
2023/11/21 08:29:19;;;;;;;4.50;2.93;;;;;;;11.58;100.00;97742.16;4189755;28;20639;-87
2023/11/21 08:31:26;;;;;;;3.73;2.10;;;;;;;11.58;100.00;97742.16;4175091;28;20655;-87
2023/11/21 08:33:29;;;;;;;3.13;2.20;;;;;;;11.62;100.00;97748.78;4157782;28;21149;-87
2023/11/21 08:35:33;;;;;;;10.63;6.90;;;;;;;11.63;100.00;97740.84;4165394;28;20637;-86
2023/11/21 08:37:37;;;;;;;6.77;4.10;;;;;;;11.66;100.00;97740.59;4168872;28;20683;-87
2023/11/21 08:39:41;;;;;;;5.87;3.50;;;;;;;11.67;100.00;97737.03;4186594;28;20627;-87
2023/11/21 08:41:46;;;;;;;4.80;3.03;;;;;;;11.70;100.00;97746.41;4171123;28;20644;-86
2023/11/21 08:43:51;;;;;;;6.40;4.77;;;;;;;11.74;100.00;97746.03;4174959;28;21000;-86
2023/11/21 08:45:54;;;;;;;3.70;2.50;;;;;;;11.78;100.00;97742.25;4165848;28;20639;-87
2023/11/21 08:47:58;;;;;;;4.90;2.60;;;;;;;11.82;100.00;97749.72;4181202;28;20600;-87
2023/11/21 08:50:00;;;;;;;6.90;3.07;;;;;;;11.86;100.00;97753.78;4191634;28;20637;-87
2023/11/21 08:52:06;;;;;;;7.07;5.00;;;;;;;11.88;100.00;97751.03;4161488;28;21130;-87
2023/11/21 08:54:10;;;;;;;4.30;3.50;;;;;;;11.91;99.83;97756.03;4173947;28;20724;-87
2023/11/21 08:56:14;;;;;;;3.53;2.50;;;;;;;11.97;100.00;97755.53;4160724;28;20633;-87
2023/11/21 08:58:17;;;;;;;3.70;2.70;;;;;;;12.01;100.00;97760.41;4179307;28;20670;-87
2023/11/21 09:00:22;;;;;;;3.17;2.10;;;;;;;12.03;100.00;97758.50;4172521;28;20643;-87
2023/11/21 09:02:26;;;;;;;7.17;2.90;;;;;;;12.07;100.00;97757.31;4175022;28;20710;-87
2023/11/21 09:04:30;;;;;;;4.17;3.10;;;;;;;12.12;100.00;97764.75;4162054;28;20700;-86
2023/11/21 09:06:33;;;;;;;4.40;2.93;;;;;;;12.12;100.00;97770.81;4178357;28;20716;-87
2023/11/21 09:08:35;;;;;;;5.63;3.00;;;;;;;12.13;100.00;97762.00;4186258;28;21050;-87
2023/11/21 09:10:40;;;;;;;4.07;3.07;;;;;;;12.17;99.40;97770.47;4179716;28;21174;-87
2023/11/21 09:12:43;;;;;;;5.40;3.10;;;;;;;12.12;100.00;97765.59;4180237;28;20632;-87
2023/11/21 09:14:47;;;;;;;4.70;2.63;;;;;;;12.04;100.00;97768.00;4164474;28;20628;-87
2023/11/21 09:16:51;;;;;;;4.43;2.67;;;;;;;12.08;99.45;97773.81;4182052;28;21182;-87
2023/11/21 09:18:55;;;;;;;5.27;3.47;;;;;;;12.13;100.00;97774.25;4165485;28;20978;-87
2023/11/21 09:20:59;;;;;;;4.33;3.30;;;;;;;12.16;100.00;97774.84;4179123;28;20731;-87
2023/11/21 09:23:02;;;;;;;3.60;2.87;;;;;;;12.18;100.00;97772.09;4170109;28;20670;-87
2023/11/21 09:25:06;;;;;;;4.33;3.13;;;;;;;12.17;99.34;97779.13;4174719;28;21257;-87
2023/11/21 09:27:11;;;;;;;4.40;2.90;;;;;;;12.18;100.00;97774.72;4192498;28;21017;-86
2023/11/21 09:29:14;;;;;;;5.97;3.83;;;;;;;12.20;100.00;97784.13;4154668;28;20644;-87
2023/11/21 09:31:17;;;;;;;4.23;3.20;;;;;;;12.23;100.00;97781.25;4160284;28;21077;-86
2023/11/21 09:33:22;;;;;;;4.33;3.20;;;;;;;12.25;100.00;97787.19;4172629;28;20632;-87
2023/11/21 09:35:26;;;;;;;4.60;2.93;;;;;;;12.33;100.00;97784.81;4178223;28;20675;-87
2023/11/21 09:37:31;;;;;;;4.13;3.20;;;;;;;12.39;100.00;97790.38;4154833;28;20634;-86